Nova America, Brazil
Current Conditions -  °F | °C
As of 2:00 PM on Monday 26 Jan 2015 (Local Time) from SBAN Reporting Station
Broken Clouds Broken Clouds  
Wind Chill: 79°   Ceiling: 3000
Heat Index: 80°   Visibility: 6mi
Dew Point: 63°   Wind: 5mph
Humidity: 57%   Direction: 320°NW
Pressure: 30.12"   Gusts: NA
Location:  15.02°S, 49.9°W
Report Text: SBAN 261600Z 32004KT 9999 BKN030 26/17 Q1020
Loading
Personal Weather Stations






























Interactive Weather Map New forecast layout! Learn more

10-Day Weather Forecast

Advertisements
Track Severe Weather on mobile